Time;durP1;ratioP1;P1;durP2;ratioP2;P2;SDS_P1;SDS_P2;PMS_P1;PMS_P2;Temp;Humidity;BMP_temperature;BMP_pressure;BME280_temperature;BME280_humidity;BME280_pressure;Samples;Min_cycle;Max_cycle;Signal;HPM_P1;HPM_P2
2024/04/14 00:01:51;;;;;;;11.60;3.50;;;12.30;99.90;;;;;;5415939;26;20004;-74
2024/04/14 00:04:16;;;;;;;5.07;2.60;;;12.40;99.90;;;;;;5385167;26;20054;-74
2024/04/14 00:06:42;;;;;;;4.80;2.97;;;12.40;99.90;;;;;;5411788;26;20659;-73
2024/04/14 00:09:07;;;;;;;4.82;2.88;;;12.40;99.90;;;;;;5448309;26;19995;-76
2024/04/14 00:11:33;;;;;;;5.95;2.60;;;12.40;99.90;;;;;;5447351;26;20441;-75
2024/04/14 00:13:59;;;;;;;5.03;3.08;;;12.40;99.90;;;;;;5447772;26;19998;-75
2024/04/14 00:16:25;;;;;;;5.20;2.97;;;12.40;99.90;;;;;;5446630;26;19999;-74
2024/04/14 00:18:50;;;;;;;4.63;2.22;;;12.40;99.90;;;;;;5435813;26;20014;-74
2024/04/14 00:21:16;;;;;;;6.00;2.53;;;12.30;99.90;;;;;;5448085;26;20035;-74
2024/04/14 00:23:41;;;;;;;6.35;3.05;;;12.00;99.90;;;;;;5411752;26;20092;-74
2024/04/14 00:26:10;;;;;;;7.95;2.63;;;12.00;99.90;;;;;;5411041;26;19996;-74
2024/04/14 00:28:36;;;;;;;7.20;3.17;;;12.00;99.90;;;;;;5435838;26;20079;-75
2024/04/14 00:31:01;;;;;;;3.33;2.60;;;11.80;99.90;;;;;;5424382;26;20035;-75
2024/04/14 00:33:30;;;;;;;5.03;2.58;;;11.70;99.90;;;;;;5432747;26;20003;-74
2024/04/14 00:35:56;;;;;;;2.67;2.15;;;11.50;99.90;;;;;;5403097;26;19996;-75
2024/04/14 00:38:21;;;;;;;4.30;2.80;;;11.20;99.90;;;;;;5399519;26;20011;-74
2024/04/14 00:40:47;;;;;;;4.88;3.47;;;11.20;99.90;;;;;;5439173;26;20002;-75
2024/04/14 00:43:16;;;;;;;8.48;4.07;;;11.20;99.90;;;;;;5398466;26;19997;-75
2024/04/14 00:45:43;;;;;;;8.55;4.00;;;11.30;99.90;;;;;;5436587;26;20007;-74
2024/04/14 00:48:09;;;;;;;7.05;3.53;;;11.40;99.90;;;;;;5421442;26;20000;-75
2024/04/14 00:50:34;;;;;;;4.43;3.50;;;11.40;99.90;;;;;;5435631;26;20047;-74
2024/04/14 00:53:00;;;;;;;6.00;3.55;;;11.50;99.90;;;;;;5421848;26;20011;-75
2024/04/14 00:55:26;;;;;;;4.15;3.20;;;11.50;99.90;;;;;;5433333;26;19999;-75
2024/04/14 00:57:52;;;;;;;5.13;3.05;;;11.50;99.90;;;;;;5431826;26;20014;-75
2024/04/14 01:00:19;;;;;;;7.15;3.95;;;11.60;99.90;;;;;;5400141;26;20000;-75
2024/04/14 01:02:47;;;;;;;6.57;3.60;;;11.60;99.90;;;;;;5435880;26;20905;-74
2024/04/14 01:05:13;;;;;;;5.97;3.17;;;11.60;99.90;;;;;;5419983;26;20004;-74
2024/04/14 01:07:39;;;;;;;9.68;3.63;;;11.50;99.90;;;;;;5417915;26;20080;-75
2024/04/14 01:10:05;;;;;;;5.60;3.55;;;11.40;99.90;;;;;;5447168;26;20014;-74
2024/04/14 01:12:31;;;;;;;4.95;3.10;;;11.60;99.90;;;;;;5446671;26;19999;-75
2024/04/14 01:14:57;;;;;;;7.28;3.67;;;11.40;99.90;;;;;;5447175;26;20075;-74
2024/04/14 01:17:23;;;;;;;3.95;2.60;;;11.20;99.90;;;;;;5445914;26;20550;-73
2024/04/14 01:19:49;;;;;;;5.32;3.10;;;11.10;99.90;;;;;;5446225;26;20052;-74
2024/04/14 01:22:14;;;;;;;8.32;3.28;;;11.00;99.90;;;;;;5440838;26;20017;-72
2024/04/14 01:24:40;;;;;;;4.78;2.65;;;11.10;99.90;;;;;;5432976;26;20002;-74
2024/04/14 01:27:05;;;;;;;6.60;3.25;;;11.10;99.90;;;;;;5409166;26;20034;-74
2024/04/14 01:29:32;;;;;;;6.55;3.42;;;11.10;99.90;;;;;;5445336;26;20583;-74
2024/04/14 01:31:57;;;;;;;4.25;3.05;;;11.30;99.90;;;;;;5446262;26;20003;-74
2024/04/14 01:34:23;;;;;;;4.05;2.78;;;11.20;99.90;;;;;;5446614;26;20022;-74
2024/04/14 01:36:48;;;;;;;3.80;2.50;;;11.20;99.90;;;;;;5438790;26;20067;-74
2024/04/14 01:39:14;;;;;;;7.28;3.05;;;11.10;99.90;;;;;;5440571;26;20010;-74
2024/04/14 01:41:39;;;;;;;5.55;3.40;;;11.20;99.90;;;;;;5427428;26;20471;-75
2024/04/14 01:44:05;;;;;;;8.18;3.83;;;11.40;99.90;;;;;;5435275;26;20006;-74
2024/04/14 01:46:31;;;;;;;8.70;3.33;;;11.40;99.90;;;;;;5411532;26;19999;-75
2024/04/14 01:48:56;;;;;;;4.82;3.40;;;11.40;99.90;;;;;;5428382;26;19995;-74
2024/04/14 01:51:22;;;;;;;5.43;3.33;;;11.50;99.90;;;;;;5419571;26;20009;-74
2024/04/14 01:53:48;;;;;;;8.90;4.22;;;11.50;99.90;;;;;;5423243;26;20420;-74
2024/04/14 01:56:14;;;;;;;5.85;3.13;;;11.50;99.90;;;;;;5411663;26;20082;-73
2024/04/14 01:58:39;;;;;;;6.20;3.22;;;11.50;99.90;;;;;;5439512;26;19999;-74
2024/04/14 02:01:05;;;;;;;5.10;3.50;;;11.60;99.90;;;;;;5439545;26;20014;-74
2024/04/14 02:03:32;;;;;;;5.50;3.83;;;11.70;99.90;;;;;;5426841;26;20006;-75
2024/04/14 02:06:01;;;;;;;6.20;3.17;;;11.70;99.90;;;;;;5430514;26;19995;-74
2024/04/14 02:08:26;;;;;;;4.85;3.13;;;11.70;99.90;;;;;;5436303;26;20003;-74
2024/04/14 02:10:52;;;;;;;9.35;3.17;;;11.90;99.90;;;;;;5446376;26;20014;-74
2024/04/14 02:13:19;;;;;;;13.50;3.00;;;11.90;99.90;;;;;;5427417;26;20050;-74
2024/04/14 02:15:44;;;;;;;6.28;2.90;;;11.90;99.90;;;;;;5419795;26;20010;-74
2024/04/14 02:18:10;;;;;;;9.85;3.03;;;12.00;99.90;;;;;;5445575;26;19999;-74
2024/04/14 02:20:36;;;;;;;7.50;3.85;;;12.00;99.90;;;;;;5444153;26;19999;-74
2024/04/14 02:23:01;;;;;;;6.00;3.20;;;12.00;99.90;;;;;;5427074;26;19998;-74
2024/04/14 02:25:27;;;;;;;4.80;2.92;;;12.00;99.90;;;;;;5447008;26;20071;-74
2024/04/14 02:27:53;;;;;;;6.72;3.40;;;12.00;99.90;;;;;;5446225;26;20013;-73
2024/04/14 02:30:18;;;;;;;5.50;3.28;;;11.90;99.90;;;;;;5446962;26;20705;-73
2024/04/14 02:32:44;;;;;;;8.45;3.30;;;11.80;99.90;;;;;;5419997;26;20006;-74
2024/04/14 02:35:10;;;;;;;6.03;3.15;;;11.80;99.90;;;;;;5446527;26;20005;-74
2024/04/14 02:37:36;;;;;;;5.30;3.40;;;11.80;99.90;;;;;;5424660;26;20341;-74
2024/04/14 02:40:02;;;;;;;5.15;3.08;;;11.70;99.90;;;;;;5447009;26;19999;-74
2024/04/14 02:42:34;;;;;;;6.20;2.83;;;11.70;99.90;;;;;;5446452;26;19995;-74
2024/04/14 02:44:59;;;;;;;6.28;2.90;;;11.70;99.90;;;;;;5446692;26;20003;-74
2024/04/14 02:47:25;;;;;;;11.82;3.38;;;11.70;99.90;;;;;;5445837;26;20010;-74
2024/04/14 02:49:51;;;;;;;5.95;2.53;;;11.60;99.90;;;;;;5445824;26;20011;-75
2024/04/14 02:52:16;;;;;;;6.38;3.42;;;11.60;99.90;;;;;;5446808;26;20014;-74
2024/04/14 02:54:42;;;;;;;9.07;2.90;;;11.60;99.90;;;;;;5434531;26;20570;-74
2024/04/14 02:57:08;;;;;;;8.07;2.75;;;11.60;99.90;;;;;;5446927;26;20006;-74
2024/04/14 02:59:34;;;;;;;4.35;3.08;;;11.40;99.90;;;;;;5446173;26;19999;-73
2024/04/14 03:02:00;;;;;;;7.63;3.28;;;11.40;99.90;;;;;;5445510;26;19998;-74
2024/04/14 03:04:25;;;;;;;6.03;3.60;;;11.50;99.90;;;;;;5446568;26;20531;-74
2024/04/14 03:06:53;;;;;;;5.93;3.30;;;11.40;99.90;;;;;;5420769;26;20722;-74
2024/04/14 03:09:19;;;;;;;6.75;3.30;;;11.30;99.90;;;;;;5446506;26;19994;-74
2024/04/14 03:11:44;;;;;;;7.60;4.03;;;11.30;99.90;;;;;;5437555;26;19995;-74
2024/04/14 03:14:10;;;;;;;7.07;3.47;;;11.20;99.90;;;;;;5446061;26;19999;-74
2024/04/14 03:16:36;;;;;;;6.30;3.65;;;11.20;99.90;;;;;;5444773;26;20007;-74
2024/04/14 03:19:02;;;;;;;5.57;3.47;;;11.10;99.90;;;;;;5445241;26;19999;-74
2024/04/14 03:21:27;;;;;;;5.07;3.28;;;11.10;99.90;;;;;;5449539;26;20003;-74
2024/04/14 03:23:53;;;;;;;6.97;3.30;;;11.10;99.90;;;;;;5449041;26;19999;-74
2024/04/14 03:26:19;;;;;;;4.93;3.47;;;11.20;99.90;;;;;;5446748;26;20003;-74
2024/04/14 03:28:44;;;;;;;4.13;3.25;;;11.20;99.90;;;;;;5427492;26;20015;-74
2024/04/14 03:31:10;;;;;;;8.25;3.30;;;11.20;99.90;;;;;;5448735;26;20011;-74
2024/04/14 03:33:36;;;;;;;6.18;3.70;;;11.30;99.90;;;;;;5446910;26;19999;-74
2024/04/14 03:36:09;;;;;;;5.25;3.13;;;11.30;99.90;;;;;;5439620;26;20073;-74
2024/04/14 03:38:35;;;;;;;9.18;3.92;;;11.30;99.90;;;;;;5447498;26;20018;-74
2024/04/14 03:41:01;;;;;;;8.45;4.05;;;11.30;99.90;;;;;;5442351;26;20002;-74
2024/04/14 03:43:27;;;;;;;6.57;3.72;;;11.40;99.90;;;;;;5445540;26;20075;-74
2024/04/14 03:45:53;;;;;;;8.70;3.47;;;11.40;99.90;;;;;;5437610;26;20345;-73
2024/04/14 03:48:19;;;;;;;5.05;3.97;;;11.40;99.90;;;;;;5419060;26;19996;-74
2024/04/14 03:50:48;;;;;;;7.15;3.10;;;11.20;99.90;;;;;;5436991;26;19999;-74
2024/04/14 03:53:14;;;;;;;6.32;3.58;;;11.20;99.90;;;;;;5445675;26;20001;-73
2024/04/14 03:55:40;;;;;;;4.95;3.47;;;11.20;99.90;;;;;;5444835;26;20671;-73
2024/04/14 03:58:06;;;;;;;8.57;4.07;;;11.20;99.90;;;;;;5442962;26;19998;-74
2024/04/14 04:00:31;;;;;;;6.13;3.50;;;11.20;99.90;;;;;;5406247;26;20007;-74
2024/04/14 04:02:57;;;;;;;4.97;3.67;;;11.20;99.90;;;;;;5441154;26;19995;-74
2024/04/14 04:05:24;;;;;;;3.92;3.33;;;11.20;99.90;;;;;;5418600;26;20051;-71
2024/04/14 04:07:49;;;;;;;7.80;3.72;;;11.10;99.90;;;;;;5434563;26;20556;-73
2024/04/14 04:10:15;;;;;;;9.98;3.75;;;11.20;99.90;;;;;;5448280;26;20010;-74
2024/04/14 04:12:42;;;;;;;7.53;3.40;;;11.20;99.90;;;;;;5448214;26;20003;-75
2024/04/14 04:15:07;;;;;;;8.48;3.97;;;11.10;99.90;;;;;;5447864;26;20014;-74
2024/04/14 04:17:33;;;;;;;7.68;3.55;;;11.10;99.90;;;;;;5434652;26;20003;-72
2024/04/14 04:19:58;;;;;;;6.70;3.60;;;11.10;99.90;;;;;;5447057;26;20085;-74
2024/04/14 04:22:24;;;;;;;7.13;4.00;;;11.10;99.90;;;;;;5414713;26;20027;-73
2024/04/14 04:24:50;;;;;;;6.13;3.60;;;11.00;99.90;;;;;;5447396;26;19998;-74
2024/04/14 04:27:16;;;;;;;7.80;3.33;;;11.00;99.90;;;;;;5447773;26;20469;-73
2024/04/14 04:29:42;;;;;;;14.40;3.80;;;11.00;99.90;;;;;;5415697;26;20006;-74
2024/04/14 04:32:08;;;;;;;7.72;4.60;;;11.00;99.90;;;;;;5445532;26;20040;-74
2024/04/14 04:34:33;;;;;;;4.63;3.80;;;10.90;99.90;;;;;;5447028;26;20003;-74
2024/04/14 04:36:59;;;;;;;9.02;3.88;;;10.90;99.90;;;;;;5447703;26;20010;-74
2024/04/14 04:39:24;;;;;;;6.70;3.42;;;10.90;99.90;;;;;;5446283;26;20421;-73
2024/04/14 04:41:50;;;;;;;6.07;4.15;;;10.90;99.90;;;;;;5447650;26;19999;-74
2024/04/14 04:44:16;;;;;;;5.97;3.67;;;11.00;99.90;;;;;;5447694;26;20002;-74
2024/04/14 04:46:41;;;;;;;6.95;4.35;;;11.00;99.90;;;;;;5446613;26;19999;-73
2024/04/14 04:49:07;;;;;;;9.38;3.95;;;10.90;99.90;;;;;;5447048;26;20373;-74
2024/04/14 04:51:33;;;;;;;6.57;3.90;;;11.00;99.90;;;;;;5447437;26;20006;-74
2024/04/14 04:53:58;;;;;;;8.82;4.10;;;10.90;99.90;;;;;;5426336;26;19996;-73
2024/04/14 04:56:24;;;;;;;6.85;3.60;;;10.80;99.90;;;;;;5447413;26;20074;-73
2024/04/14 04:58:49;;;;;;;11.95;3.80;;;10.90;99.90;;;;;;5447099;26;20096;-73
2024/04/14 05:01:15;;;;;;;8.48;3.90;;;10.90;99.90;;;;;;5447207;26;20649;-73
2024/04/14 05:03:41;;;;;;;6.60;4.15;;;10.80;99.90;;;;;;5446114;26;19995;-74
2024/04/14 05:06:06;;;;;;;8.05;3.72;;;10.70;99.90;;;;;;5424995;26;20360;-73
2024/04/14 05:08:33;;;;;;;5.28;3.30;;;10.70;99.90;;;;;;5429088;26;19995;-73
2024/04/14 05:10:59;;;;;;;6.30;3.83;;;10.70;99.90;;;;;;5447003;26;20475;-74
2024/04/14 05:13:26;;;;;;;6.38;3.88;;;10.80;99.90;;;;;;5426578;26;20015;-74
2024/04/14 05:15:53;;;;;;;7.20;3.72;;;10.90;99.90;;;;;;5439211;26;20423;-74
2024/04/14 05:18:19;;;;;;;7.13;3.70;;;10.80;99.90;;;;;;5435373;26;20456;-73
2024/04/14 05:20:45;;;;;;;6.22;4.20;;;10.90;99.90;;;;;;5438882;26;20027;-74
2024/04/14 05:23:10;;;;;;;14.98;3.95;;;10.90;99.90;;;;;;5427985;26;20011;-74
2024/04/14 05:25:37;;;;;;;10.32;4.28;;;11.00;99.90;;;;;;5436097;26;20031;-74
2024/04/14 05:28:03;;;;;;;13.07;4.20;;;11.10;99.90;;;;;;5434428;26;19999;-73
2024/04/14 05:30:28;;;;;;;5.80;4.15;;;11.20;99.90;;;;;;5428812;26;20018;-73
2024/04/14 05:32:56;;;;;;;7.80;3.75;;;11.30;99.90;;;;;;5384548;26;20008;-74
2024/04/14 05:35:22;;;;;;;10.48;4.03;;;11.30;99.90;;;;;;5411383;26;20017;-74
2024/04/14 05:37:48;;;;;;;7.85;3.75;;;11.50;99.90;;;;;;5419455;26;19999;-74
2024/04/14 05:40:14;;;;;;;6.78;3.80;;;11.60;99.90;;;;;;5408690;26;19995;-73
2024/04/14 05:42:39;;;;;;;5.43;3.55;;;11.70;99.90;;;;;;5438584;26;20505;-74
2024/04/14 05:45:08;;;;;;;6.43;3.67;;;11.70;99.90;;;;;;5431270;26;20018;-74
2024/04/14 05:47:34;;;;;;;4.72;3.28;;;11.80;99.90;;;;;;5434063;26;20076;-74
2024/04/14 05:49:59;;;;;;;8.60;3.90;;;12.00;99.90;;;;;;5428484;26;20003;-75
2024/04/14 05:52:25;;;;;;;4.60;3.03;;;12.10;99.90;;;;;;5419259;26;20003;-74
2024/04/14 05:54:50;;;;;;;7.80;3.63;;;12.30;99.90;;;;;;5431129;26;20741;-74
2024/04/14 05:57:16;;;;;;;5.28;3.17;;;12.40;99.90;;;;;;5405318;26;20035;-74
2024/04/14 05:59:44;;;;;;;5.78;3.05;;;12.50;99.90;;;;;;5415526;26;20494;-74
2024/04/14 06:02:10;;;;;;;3.70;2.85;;;12.70;99.90;;;;;;5400849;26;20674;-73
2024/04/14 06:04:36;;;;;;;5.75;3.13;;;12.70;99.90;;;;;;5415834;26;20097;-73
2024/04/14 06:07:02;;;;;;;2.60;2.40;;;12.80;99.90;;;;;;5412500;26;20006;-74
2024/04/14 06:09:28;;;;;;;4.90;2.97;;;12.90;99.90;;;;;;5409928;26;20023;-73
2024/04/14 06:11:54;;;;;;;4.88;2.72;;;13.10;99.90;;;;;;5428837;26;19994;-73
2024/04/14 06:14:22;;;;;;;4.85;2.65;;;13.20;99.90;;;;;;5422390;26;20417;-73
2024/04/14 06:16:47;;;;;;;3.67;2.38;;;13.40;99.90;;;;;;5442259;26;20039;-73
2024/04/14 06:19:13;;;;;;;4.88;2.47;;;13.50;99.90;;;;;;5427880;26;20075;-74
2024/04/14 06:21:38;;;;;;;6.75;2.60;;;13.70;99.90;;;;;;5433681;26;20002;-74
2024/04/14 06:24:05;;;;;;;3.22;2.30;;;13.90;99.90;;;;;;5430013;26;19991;-73
2024/04/14 06:26:30;;;;;;;3.75;2.28;;;14.10;99.90;;;;;;5408818;26;20015;-74
2024/04/14 06:28:56;;;;;;;4.60;2.65;;;14.10;99.90;;;;;;5411689;26;20030;-73
2024/04/14 06:31:22;;;;;;;4.70;2.60;;;14.30;99.90;;;;;;5425877;26;20000;-74
2024/04/14 06:33:47;;;;;;;6.30;3.03;;;14.40;99.90;;;;;;5413983;26;19996;-74
2024/04/14 06:36:13;;;;;;;5.38;2.40;;;14.50;99.90;;;;;;5432407;26;20015;-74
2024/04/14 06:38:44;;;;;;;4.18;2.15;;;14.60;74.70;;;;;;5445656;26;20017;-74
2024/04/14 06:41:12;;;;;;;3.63;2.15;;;14.70;34.30;;;;;;5442838;26;20068;-74
2024/04/14 06:43:38;;;;;;;3.47;1.70;;;14.70;1.00;;;;;;5402771;26;20432;-74
2024/04/14 06:46:04;;;;;;;4.72;1.45;;;14.60;1.00;;;;;;5420598;26;20009;-72
2024/04/14 06:48:30;;;;;;;4.50;1.27;;;14.60;1.00;;;;;;5412848;26;20092;-73
2024/04/14 06:50:55;;;;;;;6.75;1.67;;;14.50;1.00;;;;;;5434645;26;20034;-73
2024/04/14 06:53:21;;;;;;;7.20;1.52;;;14.50;1.00;;;;;;5438427;26;20784;-73
2024/04/14 06:55:55;;;;;;;13.63;3.95;;;14.50;1.00;;;;;;5442995;26;20007;-73
2024/04/14 06:58:20;;;;;;;3.13;1.52;;;14.50;99.90;;;;;;5433889;26;20007;-73
2024/04/14 07:00:46;;;;;;;6.50;1.60;;;14.60;99.90;;;;;;5416101;26;20011;-72
2024/04/14 07:03:12;;;;;;;12.43;2.05;;;14.70;1.00;;;;;;5432789;26;20006;-72
2024/04/14 07:05:37;;;;;;;9.68;1.83;;;14.80;1.00;;;;;;5416458;26;20009;-72
2024/04/14 07:08:04;;;;;;;5.03;1.10;;;14.90;1.00;;;;;;5446377;26;20026;-73
2024/04/14 07:10:29;;;;;;;3.78;1.42;;;15.00;1.00;;;;;;5415320;26;20017;-72
2024/04/14 07:12:55;;;;;;;3.20;1.75;;;15.00;99.90;;;;;;5422003;26;19999;-72
2024/04/14 07:15:21;;;;;;;3.50;1.58;;;14.90;99.90;;;;;;5422420;26;20010;-72
2024/04/14 07:17:46;;;;;;;5.05;1.65;;;15.00;99.90;;;;;;5414064;26;19995;-72
2024/04/14 07:20:12;;;;;;;6.97;1.38;;;15.10;99.90;;;;;;5443644;26;20014;-72
2024/04/14 07:22:37;;;;;;;2.88;1.40;;;15.00;99.90;;;;;;5435145;26;20015;-72
2024/04/14 07:25:03;;;;;;;2.30;1.45;;;15.00;99.90;;;;;;5425835;26;19999;-71
2024/04/14 07:27:29;;;;;;;5.30;1.45;;;15.20;99.90;;;;;;5437075;26;19999;-73
2024/04/14 07:29:54;;;;;;;1.40;0.98;;;15.40;99.90;;;;;;5414706;26;20006;-73
2024/04/14 07:32:20;;;;;;;1.98;0.90;;;15.30;99.90;;;;;;5418789;26;19999;-73
2024/04/14 07:34:46;;;;;;;3.83;1.13;;;15.30;99.90;;;;;;5423051;26;19992;-73
2024/04/14 07:37:11;;;;;;;1.20;0.90;;;15.30;99.90;;;;;;5429996;26;20007;-73
2024/04/14 07:39:37;;;;;;;1.27;1.00;;;15.40;99.90;;;;;;5427161;26;20338;-73
2024/04/14 07:42:08;;;;;;;4.38;1.50;;;15.40;99.90;;;;;;5425951;26;20530;-73
2024/04/14 07:44:34;;;;;;;1.08;0.90;;;15.50;99.90;;;;;;5432048;26;20823;-74
2024/04/14 07:46:59;;;;;;;2.88;1.20;;;15.60;99.90;;;;;;5420082;26;20014;-75
2024/04/14 07:49:25;;;;;;;1.55;0.82;;;15.60;99.90;;;;;;5408183;26;19998;-74
2024/04/14 07:51:51;;;;;;;1.42;1.00;;;15.60;99.90;;;;;;5423150;26;20051;-74
2024/04/14 07:54:16;;;;;;;2.10;1.00;;;15.50;99.90;;;;;;5427524;26;20010;-76
2024/04/14 07:56:42;;;;;;;3.75;1.33;;;15.40;99.90;;;;;;5449988;26;20052;-75
2024/04/14 07:59:07;;;;;;;2.42;1.20;;;15.40;99.90;;;;;;5437240;26;20247;-75
2024/04/14 08:01:33;;;;;;;2.20;1.00;;;15.40;99.90;;;;;;5444649;26;20011;-75
2024/04/14 08:03:59;;;;;;;1.52;1.10;;;15.50;99.90;;;;;;5422175;26;20000;-75
2024/04/14 08:06:26;;;;;;;3.35;1.10;;;15.50;99.90;;;;;;5409008;26;20034;-74
2024/04/14 08:08:52;;;;;;;2.33;1.10;;;15.80;99.90;;;;;;5448069;26;20002;-74
2024/04/14 08:11:17;;;;;;;1.48;1.00;;;15.90;99.90;;;;;;5447858;26;19999;-74
2024/04/14 08:13:43;;;;;;;1.20;0.90;;;16.00;99.90;;;;;;5447743;26;20009;-75
2024/04/14 08:16:09;;;;;;;1.38;1.00;;;16.10;99.90;;;;;;5446304;26;19999;-75
2024/04/14 08:18:34;;;;;;;3.45;1.33;;;16.20;99.90;;;;;;5447384;26;20046;-76
2024/04/14 08:21:02;;;;;;;1.50;1.05;;;16.40;99.90;;;;;;5441980;26;19999;-76
2024/04/14 08:23:28;;;;;;;1.65;0.88;;;16.70;99.90;;;;;;5441031;26;20006;-76
2024/04/14 08:25:53;;;;;;;2.17;1.20;;;16.70;99.90;;;;;;5401113;26;20077;-77
2024/04/14 08:28:19;;;;;;;7.07;1.10;;;16.70;99.90;;;;;;5408622;26;19992;-76
2024/04/14 08:30:45;;;;;;;1.08;0.90;;;17.10;99.90;;;;;;5430321;26;19996;-75
2024/04/14 08:33:10;;;;;;;1.17;1.00;;;17.00;99.90;;;;;;5400553;26;20052;-76
2024/04/14 08:35:36;;;;;;;1.60;1.00;;;16.90;99.90;;;;;;5434155;26;19998;-77
2024/04/14 08:38:02;;;;;;;2.83;1.08;;;17.00;99.90;;;;;;5440169;26;19999;-77
2024/04/14 08:40:28;;;;;;;2.88;0.95;;;17.20;99.90;;;;;;5406975;26;20011;-76
2024/04/14 08:42:53;;;;;;;7.78;1.30;;;17.30;99.90;;;;;;5431460;26;20004;-77
2024/04/14 08:45:23;;;;;;;3.28;1.05;;;17.50;99.90;;;;;;5430719;26;20529;-76
2024/04/14 08:47:55;;;;;;;1.42;0.75;;;17.50;73.00;;;;;;5434397;26;20014;-76
2024/04/14 08:50:24;;;;;;;4.13;1.10;;;17.40;49.70;;;;;;5434254;26;19994;-77
2024/04/14 08:52:50;;;;;;;2.03;0.90;;;17.40;71.40;;;;;;5432023;26;19994;-75
2024/04/14 08:55:16;;;;;;;2.85;1.00;;;17.10;99.90;;;;;;5423674;26;20001;-75
2024/04/14 08:57:42;;;;;;;2.65;1.05;;;17.00;93.00;;;;;;5427320;26;19998;-75
2024/04/14 09:00:20;;;;;;;3.20;0.90;;;16.90;99.90;;;;;;5435553;26;20075;-75
2024/04/14 09:02:45;;;;;;;2.03;1.02;;;17.20;99.90;;;;;;5411189;26;19999;-75
2024/04/14 09:05:15;;;;;;;2.28;0.90;;;17.10;99.90;;;;;;5409581;26;20066;-75
2024/04/14 09:07:42;;;;;;;3.05;0.98;;;17.20;99.90;;;;;;5416057;26;19999;-84
2024/04/14 09:10:07;;;;;;;2.35;0.90;;;17.40;99.90;;;;;;5410773;26;20462;-84
2024/04/14 09:12:33;;;;;;;5.60;1.27;;;17.30;99.90;;;;;;5439978;26;19999;-83
2024/04/14 09:14:59;;;;;;;2.17;1.17;;;17.50;99.90;;;;;;5417536;26;20073;-85
2024/04/14 09:17:24;;;;;;;3.22;1.35;;;17.30;99.90;;;;;;5426894;26;19999;-83
2024/04/14 09:19:50;;;;;;;2.45;1.00;;;17.00;99.90;;;;;;5415269;26;20038;-83
2024/04/14 09:22:17;;;;;;;3.95;1.08;;;17.00;99.90;;;;;;5424452;26;19999;-85
2024/04/14 09:24:43;;;;;;;2.25;0.93;;;16.80;99.90;;;;;;5426396;26;19994;-86
2024/04/14 09:27:09;;;;;;;2.83;0.85;;;16.80;99.90;;;;;;5421502;26;19999;-86
2024/04/14 09:29:35;;;;;;;1.75;1.20;;;16.90;99.90;;;;;;5440385;26;20007;-84
2024/04/14 09:32:01;;;;;;;2.03;0.95;;;17.00;99.90;;;;;;5418818;26;20050;-84
2024/04/14 09:34:27;;;;;;;1.13;1.00;;;17.20;99.90;;;;;;5413428;26;19999;-75
2024/04/14 09:36:52;;;;;;;6.38;1.35;;;17.60;99.90;;;;;;5382674;26;20022;-75
2024/04/14 09:39:23;;;;;;;2.50;1.27;;;17.70;99.90;;;;;;5428466;26;20003;-76
2024/04/14 09:41:48;;;;;;;2.03;1.02;;;17.90;99.90;;;;;;5443189;26;19999;-75
2024/04/14 09:44:15;;;;;;;3.15;0.77;;;18.30;99.90;;;;;;5435503;26;20005;-74
2024/04/14 09:46:43;;;;;;;2.92;1.50;;;18.30;96.00;;;;;;5437952;26;20801;-75
2024/04/14 09:49:11;;;;;;;1.55;1.10;;;18.00;99.90;;;;;;5421069;26;19999;-75
2024/04/14 09:51:39;;;;;;;4.38;1.00;;;18.60;99.90;;;;;;5435372;26;20003;-74
2024/04/14 09:54:06;;;;;;;1.67;0.90;;;18.90;94.20;;;;;;5431293;26;20692;-74
2024/04/14 09:56:32;;;;;;;4.97;1.10;;;19.10;71.50;;;;;;5444083;26;20447;-75
2024/04/14 09:58:57;;;;;;;3.05;1.30;;;19.00;88.20;;;;;;5420784;26;20041;-74
2024/04/14 10:01:36;;;;;;;1.67;0.80;;;19.10;50.50;;;;;;5420418;26;19996;-75
2024/04/14 10:04:03;;;;;;;2.22;1.13;;;19.00;1.00;;;;;;5444045;26;20093;-75
2024/04/14 10:06:30;;;;;;;1.10;0.80;;;19.00;1.00;;;;;;5421907;26;19996;-74
2024/04/14 10:08:56;;;;;;;0.80;0.68;;;18.80;1.00;;;;;;5447383;26;20010;-74
2024/04/14 10:11:26;;;;;;;3.38;0.73;;;18.90;36.80;;;;;;5415798;26;20671;-75
2024/04/14 10:13:54;;;;;;;4.05;2.03;;;19.10;69.90;;;;;;5443806;26;20324;-75
2024/04/14 10:16:21;;;;;;;3.83;1.02;;;19.50;99.90;;;;;;5439985;26;20009;-75
2024/04/14 10:18:48;;;;;;;2.00;0.82;;;19.20;5.80;;;;;;5431079;26;20010;-74
2024/04/14 10:21:17;;;;;;;1.10;0.80;;;19.40;18.30;;;;;;5430612;26;20009;-75
2024/04/14 10:23:46;;;;;;;1.45;0.65;;;19.30;15.60;;;;;;5428943;26;20394;-75
2024/04/14 10:26:19;;;;;;;8.85;0.70;;;20.00;54.90;;;;;;5432099;26;20042;-75
2024/04/14 10:28:49;;;;;;;2.08;0.80;;;19.70;13.00;;;;;;5427426;26;20014;-75
2024/04/14 10:31:24;;;;;;;13.73;0.93;;;19.90;99.90;;;;;;5439715;26;20014;-74
2024/04/14 10:34:07;;;;;;;2.30;0.80;;;20.20;1.00;;;;;;5433483;26;20015;-75
2024/04/14 10:36:39;;;;;;;3.72;0.80;;;20.50;99.90;;;;;;5417515;26;20075;-74
2024/04/14 10:39:06;;;;;;;0.70;0.50;;;20.90;99.90;;;;;;5434742;26;20018;-73
2024/04/14 10:41:32;;;;;;;2.50;0.60;;;20.60;1.00;;;;;;5419949;26;20027;-75
2024/04/14 10:43:57;;;;;;;2.30;0.60;;;21.00;1.00;;;;;;5380765;26;20015;-74
2024/04/14 10:46:23;;;;;;;2.15;0.65;;;21.30;99.90;;;;;;5407528;26;19999;-75
2024/04/14 10:48:48;;;;;;;1.25;0.75;;;20.70;4.50;;;;;;5405365;26;20010;-74
2024/04/14 10:51:14;;;;;;;1.52;0.57;;;20.90;99.90;;;;;;5422948;26;20340;-74
2024/04/14 10:53:40;;;;;;;0.90;0.55;;;21.00;99.90;;;;;;5417908;26;20335;-75
2024/04/14 10:56:06;;;;;;;0.88;0.70;;;21.10;1.00;;;;;;5418317;26;20355;-74
2024/04/14 10:58:33;;;;;;;1.05;0.47;;;21.30;99.90;;;;;;5426698;26;20022;-75
2024/04/14 11:01:00;;;;;;;1.13;0.55;;;21.20;99.90;;;;;;5415721;26;20072;-74
2024/04/14 11:03:26;;;;;;;1.35;0.52;;;21.10;99.90;;;;;;5422209;26;20006;-74
2024/04/14 11:05:52;;;;;;;0.82;0.70;;;20.50;99.90;;;;;;5397621;26;20004;-75
2024/04/14 11:08:19;;;;;;;3.50;1.08;;;20.70;99.90;;;;;;5438663;26;20011;-74
2024/04/14 11:10:47;;;;;;;2.20;0.70;;;20.90;99.90;;;;;;5445193;26;19995;-74
2024/04/14 11:13:16;;;;;;;1.00;0.80;;;20.60;1.00;;;;;;5445177;26;20045;-72
2024/04/14 11:15:45;;;;;;;19.73;10.38;;;21.10;99.90;;;;;;5444424;26;20010;-75
2024/04/14 11:18:11;;;;;;;41.03;20.52;;;21.50;99.90;;;;;;5423506;26;20042;-76
2024/04/14 11:20:45;;;;;;;8.30;2.75;;;21.30;99.90;;;;;;5443776;26;20027;-74
2024/04/14 11:23:11;;;;;;;14.43;7.17;;;21.20;99.90;;;;;;5445299;26;20664;-74
2024/04/14 11:25:37;;;;;;;1.95;0.80;;;21.30;99.90;;;;;;5424954;26;19991;-75
2024/04/14 11:28:02;;;;;;;1.38;1.02;;;21.90;1.00;;;;;;5406140;26;20496;-75
2024/04/14 11:30:30;;;;;;;1.27;0.65;;;22.40;99.90;;;;;;5415147;26;20007;-75
2024/04/14 11:32:57;;;;;;;3.45;0.88;;;22.00;99.90;;;;;;5366888;26;20022;-76
2024/04/14 11:35:23;;;;;;;1.10;0.70;;;21.80;99.90;;;;;;5406889;26;20475;-76
2024/04/14 11:37:52;;;;;;;0.90;0.70;;;22.20;99.90;;;;;;5424115;26;20357;-77
2024/04/14 11:40:21;;;;;;;1.90;0.68;;;22.70;96.90;;;;;;5438120;26;20038;-73
2024/04/14 11:42:50;;;;;;;4.82;0.93;;;22.50;99.90;;;;;;5429152;26;20071;-81
2024/04/14 11:45:16;;;;;;;2.10;0.60;;;22.50;99.90;;;;;;5351781;26;20023;-76
2024/04/14 11:47:41;;;;;;;0.38;0.35;;;22.80;99.90;;;;;;5437972;26;20660;-76
2024/04/14 11:50:08;;;;;;;1.20;0.47;;;22.50;99.90;;;;;;5442974;26;20009;-74
2024/04/14 11:52:34;;;;;;;0.95;0.50;;;22.60;99.90;;;;;;5441950;26;20413;-76
2024/04/14 11:55:07;;;;;;;1.20;0.55;;;22.70;99.90;;;;;;5445129;26;19991;-76
2024/04/14 11:57:35;;;;;;;3.60;0.60;;;22.70;99.90;;;;;;5430273;26;20118;-75
2024/04/14 12:00:01;;;;;;;1.08;0.35;;;22.90;99.90;;;;;;5444689;26;20002;-76
2024/04/14 12:02:26;;;;;;;1.63;0.57;;;22.90;99.90;;;;;;5434744;26;19998;-78
2024/04/14 12:04:53;;;;;;;0.73;0.40;;;22.90;99.90;;;;;;5381820;26;20739;-77
2024/04/14 12:07:20;;;;;;;2.38;0.80;;;23.40;96.80;;;;;;5369562;26;20018;-74
2024/04/14 12:09:46;;;;;;;0.70;0.40;;;23.40;99.70;;;;;;5407380;26;20009;-77
2024/04/14 12:12:13;;;;;;;3.28;0.50;;;23.10;97.70;;;;;;5439876;26;20432;-78
2024/04/14 12:14:39;;;;;;;0.32;0.20;;;23.30;99.90;;;;;;5408493;26;19999;-78
2024/04/14 12:17:04;;;;;;;4.75;0.80;;;23.00;99.90;;;;;;5409604;26;20064;-78
2024/04/14 12:19:30;;;;;;;1.33;0.50;;;23.30;99.90;;;;;;5447240;26;19995;-78
2024/04/14 12:21:56;;;;;;;2.65;0.40;;;23.30;99.90;;;;;;5442868;26;20409;-78
2024/04/14 12:24:21;;;;;;;0.77;0.43;;;23.20;98.60;;;;;;5406787;26;20068;-79
2024/04/14 12:26:47;;;;;;;2.67;0.77;;;23.00;99.90;;;;;;5415298;26;19996;-77
2024/04/14 12:29:12;;;;;;;0.73;0.38;;;23.10;99.90;;;;;;5436633;26;20436;-78
2024/04/14 12:31:38;;;;;;;3.13;0.65;;;23.30;99.90;;;;;;5442162;26;20005;-78
2024/04/14 12:34:04;;;;;;;1.38;0.32;;;22.90;99.90;;;;;;5430132;26;20006;-78
2024/04/14 12:36:30;;;;;;;5.07;0.50;;;22.90;99.90;;;;;;5416574;26;20326;-78
2024/04/14 12:38:55;;;;;;;7.50;0.57;;;23.00;99.90;;;;;;5438378;26;19996;-76
2024/04/14 12:41:21;;;;;;;2.17;0.70;;;22.50;99.90;;;;;;5445056;26;20050;-78
2024/04/14 12:43:47;;;;;;;4.32;0.70;;;22.60;99.90;;;;;;5430150;26;19996;-77